<?xml version="1.0" encoding="UTF-8" standalone="no" ?>
<gpx xmlns="http://www.topografix.com/GPX/1/1" xmlns:xsi="http://www.w3.org/2001/XMLSchema-instance" xsi:schemaLocation="http://www.topografix.com/GPX/1/1 http://www.topografix.com/GPX/1/1/gpx.xsd" version="1.1" creator="VisuGPX - https://www.visugpx.com">
  <metadata>
    <name>Nocturne Faumont 2025 : 35 km intermédiaire</name>
    <desc><![CDATA[Parcours intermédiaire de 35 km de la Nocturne de Faumont 2025]]></desc>
  </metadata>
  <trk>
    <name><![CDATA[Nocturne Faumont 2025 - 35 km intermédiaire-19767156]]></name>
    <extensions>
      <line xmlns="http://www.topografix.com/GPX/gpx_style/0/2">
        <color>0000FF</color>
        <width>4</width>
      </line>
    </extensions>
    <trkseg>
      <trkpt lat="50.4576" lon="3.13742">
        <ele>41</ele>
        <time>2025-05-25T12:52:25Z</time>
      </trkpt>
      <trkpt lat="50.45757" lon="3.13678">
        <ele>42</ele>
        <time>2025-05-25T12:52:35Z</time>
      </trkpt>
      <trkpt lat="50.46161" lon="3.1369">
        <ele>37</ele>
        <time>2025-05-25T12:54:09Z</time>
      </trkpt>
      <trkpt lat="50.46206" lon="3.137">
        <ele>36</ele>
        <time>2025-05-25T12:54:20Z</time>
      </trkpt>
      <trkpt lat="50.46229" lon="3.13715">
        <ele>36</ele>
        <time>2025-05-25T12:54:25Z</time>
      </trkpt>
      <trkpt lat="50.4625" lon="3.13702">
        <ele>35</ele>
        <time>2025-05-25T12:54:31Z</time>
      </trkpt>
      <trkpt lat="50.46299" lon="3.13705">
        <ele>35</ele>
        <time>2025-05-25T12:54:42Z</time>
      </trkpt>
      <trkpt lat="50.46344" lon="3.13115">
        <ele>35</ele>
        <time>2025-05-25T12:56:10Z</time>
      </trkpt>
      <trkpt lat="50.46357" lon="3.12993">
        <ele>35</ele>
        <time>2025-05-25T12:56:29Z</time>
      </trkpt>
      <trkpt lat="50.46394" lon="3.12887">
        <ele>34</ele>
        <time>2025-05-25T12:56:47Z</time>
      </trkpt>
      <trkpt lat="50.46467" lon="3.12768">
        <ele>35</ele>
        <time>2025-05-25T12:57:11Z</time>
      </trkpt>
      <trkpt lat="50.46531" lon="3.12668">
        <ele>35</ele>
        <time>2025-05-25T12:57:32Z</time>
      </trkpt>
      <trkpt lat="50.46607" lon="3.12521">
        <ele>34</ele>
        <time>2025-05-25T12:58:01Z</time>
      </trkpt>
      <trkpt lat="50.46696" lon="3.12043">
        <ele>36</ele>
        <time>2025-05-25T12:59:15Z</time>
      </trkpt>
      <trkpt lat="50.46753" lon="3.11749">
        <ele>38</ele>
        <time>2025-05-25T13:00:00Z</time>
      </trkpt>
      <trkpt lat="50.46753" lon="3.11403">
        <ele>38</ele>
        <time>2025-05-25T13:00:52Z</time>
      </trkpt>
      <trkpt lat="50.46796" lon="3.11273">
        <ele>39</ele>
        <time>2025-05-25T13:01:13Z</time>
      </trkpt>
      <trkpt lat="50.46642" lon="3.11313">
        <ele>36</ele>
        <time>2025-05-25T13:01:50Z</time>
      </trkpt>
      <trkpt lat="50.46703" lon="3.10852">
        <ele>41</ele>
        <time>2025-05-25T13:03:00Z</time>
      </trkpt>
      <trkpt lat="50.46756" lon="3.10833">
        <ele>44</ele>
        <time>2025-05-25T13:03:13Z</time>
      </trkpt>
      <trkpt lat="50.4677" lon="3.10751">
        <ele>46</ele>
        <time>2025-05-25T13:03:25Z</time>
      </trkpt>
      <trkpt lat="50.46795" lon="3.10685">
        <ele>43</ele>
        <time>2025-05-25T13:03:37Z</time>
      </trkpt>
      <trkpt lat="50.46798" lon="3.10652">
        <ele>42</ele>
        <time>2025-05-25T13:03:42Z</time>
      </trkpt>
      <trkpt lat="50.46776" lon="3.10554">
        <ele>40</ele>
        <time>2025-05-25T13:03:57Z</time>
      </trkpt>
      <trkpt lat="50.46779" lon="3.10459">
        <ele>40</ele>
        <time>2025-05-25T13:04:11Z</time>
      </trkpt>
      <trkpt lat="50.46763" lon="3.10395">
        <ele>40</ele>
        <time>2025-05-25T13:04:21Z</time>
      </trkpt>
      <trkpt lat="50.46738" lon="3.10189">
        <ele>41</ele>
        <time>2025-05-25T13:04:53Z</time>
      </trkpt>
      <trkpt lat="50.46751" lon="3.10103">
        <ele>42</ele>
        <time>2025-05-25T13:05:06Z</time>
      </trkpt>
      <trkpt lat="50.46781" lon="3.09998">
        <ele>43</ele>
        <time>2025-05-25T13:05:23Z</time>
      </trkpt>
      <trkpt lat="50.46829" lon="3.09902">
        <ele>43</ele>
        <time>2025-05-25T13:05:41Z</time>
      </trkpt>
      <trkpt lat="50.46895" lon="3.09808">
        <ele>46</ele>
        <time>2025-05-25T13:06:02Z</time>
      </trkpt>
      <trkpt lat="50.46936" lon="3.0971">
        <ele>46</ele>
        <time>2025-05-25T13:06:19Z</time>
      </trkpt>
      <trkpt lat="50.46988" lon="3.09722">
        <ele>47</ele>
        <time>2025-05-25T13:06:31Z</time>
      </trkpt>
      <trkpt lat="50.47155" lon="3.09834">
        <ele>51</ele>
        <time>2025-05-25T13:07:14Z</time>
      </trkpt>
      <trkpt lat="50.4729" lon="3.09959">
        <ele>56</ele>
        <time>2025-05-25T13:07:50Z</time>
      </trkpt>
      <trkpt lat="50.47456" lon="3.09953">
        <ele>64</ele>
        <time>2025-05-25T13:08:29Z</time>
      </trkpt>
      <trkpt lat="50.47418" lon="3.0947">
        <ele>60</ele>
        <time>2025-05-25T13:09:42Z</time>
      </trkpt>
      <trkpt lat="50.47448" lon="3.09314">
        <ele>59</ele>
        <time>2025-05-25T13:10:06Z</time>
      </trkpt>
      <trkpt lat="50.47647" lon="3.08782">
        <ele>54</ele>
        <time>2025-05-25T13:11:38Z</time>
      </trkpt>
      <trkpt lat="50.47754" lon="3.08575">
        <ele>54</ele>
        <time>2025-05-25T13:12:17Z</time>
      </trkpt>
      <trkpt lat="50.47824" lon="3.0846">
        <ele>53</ele>
        <time>2025-05-25T13:12:41Z</time>
      </trkpt>
      <trkpt lat="50.47935" lon="3.08384">
        <ele>55</ele>
        <time>2025-05-25T13:13:09Z</time>
      </trkpt>
      <trkpt lat="50.47988" lon="3.08334">
        <ele>55</ele>
        <time>2025-05-25T13:13:24Z</time>
      </trkpt>
      <trkpt lat="50.48039" lon="3.0826">
        <ele>53</ele>
        <time>2025-05-25T13:13:40Z</time>
      </trkpt>
      <trkpt lat="50.48072" lon="3.08155">
        <ele>48</ele>
        <time>2025-05-25T13:13:57Z</time>
      </trkpt>
      <trkpt lat="50.48082" lon="3.08088">
        <ele>49</ele>
        <time>2025-05-25T13:14:07Z</time>
      </trkpt>
      <trkpt lat="50.48082" lon="3.08004">
        <ele>49</ele>
        <time>2025-05-25T13:14:20Z</time>
      </trkpt>
      <trkpt lat="50.48072" lon="3.07916">
        <ele>48</ele>
        <time>2025-05-25T13:14:33Z</time>
      </trkpt>
      <trkpt lat="50.47984" lon="3.07569">
        <ele>49.8</ele>
      </trkpt>
      <trkpt lat="50.47943" lon="3.07442">
        <ele>51</ele>
      </trkpt>
      <trkpt lat="50.47912" lon="3.07233">
        <ele>52</ele>
      </trkpt>
      <trkpt lat="50.47896" lon="3.07059">
        <ele>53</ele>
      </trkpt>
      <trkpt lat="50.48166" lon="3.07067">
        <ele>51</ele>
      </trkpt>
      <trkpt lat="50.48271" lon="3.07024">
        <ele>49</ele>
      </trkpt>
      <trkpt lat="50.48762" lon="3.07083">
        <ele>45</ele>
      </trkpt>
      <trkpt lat="50.48903" lon="3.0707">
        <ele>44</ele>
      </trkpt>
      <trkpt lat="50.48954" lon="3.07058">
        <ele>44</ele>
      </trkpt>
      <trkpt lat="50.49075" lon="3.07144">
        <ele>44.1</ele>
      </trkpt>
      <trkpt lat="50.49096" lon="3.07137">
        <ele>44</ele>
      </trkpt>
      <trkpt lat="50.49142" lon="3.07085">
        <ele>44</ele>
      </trkpt>
    </trkseg>
  </trk>
</gpx>